createdAt,value
2023-05-05T00:01:00.676Z,2.70
2023-05-05T00:03:28.027Z,2.92
2023-05-05T00:05:55.227Z,2.83
2023-05-05T00:08:22.381Z,2.55
2023-05-05T00:10:50.689Z,2.72
2023-05-05T00:13:18.528Z,2.78
2023-05-05T00:15:47.142Z,3.00
2023-05-05T00:18:16.628Z,2.65
2023-05-05T00:20:44.572Z,2.60
2023-05-05T00:23:11.312Z,2.58
2023-05-05T00:25:38.453Z,3.00
2023-05-05T00:28:05.486Z,2.28
2023-05-05T00:30:34.783Z,2.60
2023-05-05T00:33:01.943Z,2.55
2023-05-05T00:35:31.526Z,2.97
2023-05-05T00:37:58.368Z,2.63
2023-05-05T00:40:25.524Z,2.85
2023-05-05T00:42:52.509Z,2.30
2023-05-05T00:45:20.175Z,2.75
2023-05-05T00:47:49.966Z,2.78
2023-05-05T00:50:25.742Z,3.00
2023-05-05T00:53:00.345Z,2.70
2023-05-05T00:55:31.112Z,3.22
2023-05-05T00:58:03.156Z,2.83
2023-05-05T01:00:30.959Z,2.97
2023-05-05T01:02:57.969Z,2.90
2023-05-05T01:05:27.298Z,2.80
2023-05-05T01:08:41.751Z,3.05
2023-05-05T01:11:23.929Z,3.08
2023-05-05T01:14:16.436Z,3.17
2023-05-05T01:16:59.879Z,3.30
2023-05-05T01:19:35.799Z,2.90
2023-05-05T01:22:07.076Z,3.17
2023-05-05T01:25:11.383Z,2.70
2023-05-05T01:27:47.395Z,3.47
2023-05-05T01:30:34.644Z,2.50
2023-05-05T01:33:05.478Z,2.75
2023-05-05T01:35:49.060Z,2.88
2023-05-05T01:38:27.578Z,2.88
2023-05-05T01:41:15.335Z,3.15
2023-05-05T01:43:46.017Z,2.90
2023-05-05T01:46:15.063Z,3.07
2023-05-05T01:48:44.138Z,3.50
2023-05-05T01:51:12.751Z,3.33
2023-05-05T01:53:40.333Z,2.83
2023-05-05T01:56:08.587Z,3.13
2023-05-05T01:58:39.620Z,3.00
2023-05-05T02:01:06.829Z,3.72
2023-05-05T02:03:36.242Z,3.28
2023-05-05T02:06:07.291Z,3.03
2023-05-05T02:08:37.920Z,3.13
2023-05-05T02:11:05.415Z,3.47
2023-05-05T02:13:32.797Z,2.67
2023-05-05T02:16:00.350Z,4.07
2023-05-05T02:18:28.440Z,3.95
2023-05-05T02:20:57.556Z,3.35
2023-05-05T02:23:25.615Z,3.67
2023-05-05T02:25:59.122Z,3.60
2023-05-05T02:28:40.253Z,3.75
2023-05-05T02:31:08.609Z,4.13
2023-05-05T02:33:38.061Z,4.10
2023-05-05T02:36:27.733Z,4.85
2023-05-05T02:39:03.360Z,4.55
2023-05-05T02:41:38.170Z,4.10
2023-05-05T02:44:12.508Z,4.60
2023-05-05T02:46:41.781Z,4.43
2023-05-05T02:49:09.018Z,4.55
2023-05-05T02:51:37.361Z,4.72
2023-05-05T02:54:09.760Z,4.20
2023-05-05T02:56:40.997Z,4.45
2023-05-05T02:59:48.497Z,3.72
2023-05-05T03:02:35.249Z,3.92
2023-05-05T03:05:30.140Z,3.92
2023-05-05T03:08:09.523Z,4.03
2023-05-05T03:11:04.158Z,4.28
2023-05-05T03:13:34.620Z,4.78
2023-05-05T03:16:06.606Z,3.87
2023-05-05T03:18:40.345Z,4.18
2023-05-05T03:21:10.275Z,4.20
2023-05-05T03:23:43.358Z,4.47
2023-05-05T03:26:18.778Z,4.47
2023-05-05T03:28:46.697Z,4.07
2023-05-05T03:31:28.492Z,4.67
2023-05-05T03:33:59.505Z,4.30
2023-05-05T03:36:31.937Z,4.05
2023-05-05T03:38:59.428Z,3.92
2023-05-05T03:41:30.407Z,4.15
2023-05-05T03:43:57.492Z,4.32
2023-05-05T03:46:25.033Z,3.83
2023-05-05T03:48:52.673Z,4.60
2023-05-05T03:51:19.954Z,4.28
2023-05-05T03:53:46.913Z,4.40
2023-05-05T03:56:13.680Z,4.22
2023-05-05T03:58:40.622Z,4.30
2023-05-05T04:01:07.336Z,4.10
2023-05-05T04:03:34.212Z,4.20
2023-05-05T04:06:01.256Z,3.60
2023-05-05T04:08:30.694Z,3.92
2023-05-05T04:10:57.645Z,3.75
2023-05-05T04:13:24.758Z,4.00
2023-05-05T04:15:51.496Z,4.07
2023-05-05T04:18:19.123Z,4.22
2023-05-05T04:20:46.695Z,4.20
2023-05-05T04:23:13.842Z,3.53
2023-05-05T04:25:41.535Z,3.83
2023-05-05T04:28:09.563Z,3.53
2023-05-05T04:30:36.733Z,3.55
2023-05-05T04:33:06.514Z,3.92
2023-05-05T04:35:33.885Z,3.33
2023-05-05T04:38:01.078Z,3.70
2023-05-05T04:40:28.456Z,3.67
2023-05-05T04:42:59.358Z,3.65
2023-05-05T04:45:29.264Z,3.58
2023-05-05T04:47:56.676Z,3.47
2023-05-05T04:50:23.421Z,3.70
2023-05-05T04:52:52.580Z,3.40
2023-05-05T04:55:19.684Z,3.85
2023-05-05T04:57:46.397Z,3.72
2023-05-05T05:00:13.884Z,3.63
2023-05-05T05:02:41.507Z,4.10
2023-05-05T05:05:09.716Z,3.97
2023-05-05T05:07:37.012Z,3.92
2023-05-05T05:10:04.111Z,3.85
2023-05-05T05:12:31.816Z,3.70
2023-05-05T05:14:58.707Z,3.40
2023-05-05T05:17:26.717Z,3.25
2023-05-05T05:19:59.226Z,3.58
2023-05-05T05:22:26.444Z,2.90
2023-05-05T05:24:53.563Z,3.08
2023-05-05T05:27:20.757Z,4.07
2023-05-05T05:29:49.955Z,3.00
2023-05-05T05:32:16.936Z,3.63
2023-05-05T05:34:44.553Z,2.88
2023-05-05T05:37:12.955Z,3.40
2023-05-05T05:39:42.005Z,3.08
2023-05-05T05:42:10.882Z,3.08
2023-05-05T05:44:37.576Z,3.40
2023-05-05T05:47:05.563Z,3.40
2023-05-05T05:49:34.719Z,3.05
2023-05-05T05:52:01.531Z,2.83
2023-05-05T05:54:28.443Z,3.13
2023-05-05T05:56:55.175Z,2.67
2023-05-05T05:59:21.925Z,2.85
2023-05-05T06:01:48.786Z,3.05
2023-05-05T06:04:15.577Z,2.55
2023-05-05T06:06:42.497Z,2.63
2023-05-05T06:09:09.628Z,2.50
2023-05-05T06:11:37.079Z,3.13
2023-05-05T06:14:03.882Z,2.55
2023-05-05T06:16:31.351Z,2.78
2023-05-05T06:19:01.302Z,2.88
2023-05-05T06:21:28.024Z,2.08
2023-05-05T06:23:55.084Z,3.05
2023-05-05T06:26:21.836Z,2.75
2023-05-05T06:28:48.571Z,2.63
2023-05-05T06:31:15.572Z,2.55
2023-05-05T06:33:44.841Z,2.42
2023-05-05T06:36:11.573Z,2.60
2023-05-05T06:38:41.297Z,2.35
2023-05-05T06:41:08.022Z,1.90
2023-05-05T06:43:34.702Z,2.10
2023-05-05T06:46:06.781Z,2.00
2023-05-05T06:48:34.626Z,2.05
2023-05-05T06:51:01.520Z,2.10
2023-05-05T06:53:28.329Z,2.00
2023-05-05T06:55:55.051Z,2.00
2023-05-05T06:58:24.176Z,2.40
2023-05-05T07:00:50.915Z,1.90
2023-05-05T07:03:17.949Z,2.15
2023-05-05T07:05:44.812Z,2.15
2023-05-05T07:08:11.618Z,1.60
2023-05-05T07:10:38.356Z,1.90
2023-05-05T07:13:06.811Z,1.60
2023-05-05T07:15:33.695Z,2.33
2023-05-05T07:18:01.434Z,1.55
2023-05-05T07:20:28.189Z,2.00
2023-05-05T07:22:55.211Z,2.35
2023-05-05T07:25:22.061Z,1.85
2023-05-05T07:27:51.636Z,1.58
2023-05-05T07:30:20.816Z,1.40
2023-05-05T07:32:47.809Z,1.45
2023-05-05T07:35:14.549Z,2.00
2023-05-05T07:37:41.238Z,1.50
2023-05-05T07:40:08.809Z,1.40
2023-05-05T07:42:35.908Z,1.52
2023-05-05T07:45:02.745Z,1.50
2023-05-05T07:47:29.503Z,1.85
2023-05-05T07:49:56.350Z,1.50
2023-05-05T07:52:37.048Z,1.45
2023-05-05T07:55:10.465Z,1.35
2023-05-05T07:57:37.640Z,1.17
2023-05-05T08:00:05.248Z,1.85
2023-05-05T08:02:39.246Z,1.65
2023-05-05T08:05:07.022Z,1.27
2023-05-05T08:07:33.996Z,1.85
2023-05-05T08:10:02.034Z,1.58
2023-05-05T08:12:28.719Z,1.80
2023-05-05T08:14:55.510Z,1.30
2023-05-05T08:17:22.347Z,1.40
2023-05-05T08:19:52.204Z,1.85
2023-05-05T08:22:19.029Z,1.60
2023-05-05T08:24:46.165Z,1.70
2023-05-05T08:27:14.088Z,1.55
2023-05-05T08:29:40.960Z,1.40
2023-05-05T08:32:07.656Z,1.60
2023-05-05T08:34:34.363Z,1.63
2023-05-05T08:37:01.098Z,1.10
2023-05-05T08:39:27.795Z,1.65
2023-05-05T08:41:54.651Z,1.20
2023-05-05T08:44:21.869Z,1.23
2023-05-05T08:46:49.631Z,1.38
2023-05-05T08:49:18.812Z,1.10
2023-05-05T08:51:46.666Z,1.05
2023-05-05T08:54:19.941Z,1.20
2023-05-05T08:56:52.135Z,1.08
2023-05-05T08:59:20.924Z,0.80
2023-05-05T09:01:48.495Z,1.15
2023-05-05T09:04:16.163Z,1.15
2023-05-05T09:06:42.895Z,0.90
2023-05-05T09:09:09.700Z,0.98
2023-05-05T09:11:37.487Z,0.90
2023-05-05T09:14:04.567Z,1.15
2023-05-05T09:16:31.436Z,1.20
2023-05-05T09:19:04.928Z,1.10
2023-05-05T09:21:33.892Z,1.02
2023-05-05T09:24:09.324Z,1.00
2023-05-05T09:26:44.823Z,1.13
2023-05-05T09:29:21.815Z,0.95
2023-05-05T09:32:10.874Z,0.90
2023-05-05T09:34:38.034Z,0.73
2023-05-05T09:37:05.934Z,0.90
2023-05-05T09:39:32.714Z,1.20
2023-05-05T09:41:59.525Z,0.90
2023-05-05T09:44:37.722Z,0.90
2023-05-05T09:47:09.492Z,0.90
2023-05-05T09:49:42.142Z,1.00
2023-05-05T09:52:14.816Z,0.80
2023-05-05T09:54:43.173Z,0.85
2023-05-05T09:57:26.118Z,0.88
2023-05-05T10:00:07.073Z,1.15
2023-05-05T10:02:36.049Z,1.30
2023-05-05T10:05:16.954Z,1.45
2023-05-05T10:07:45.964Z,1.23
2023-05-05T10:10:18.797Z,0.70
2023-05-05T10:12:47.748Z,0.80
2023-05-05T10:15:15.928Z,0.80
2023-05-05T10:18:05.108Z,1.00
2023-05-05T10:20:38.638Z,1.20
2023-05-05T10:23:08.046Z,0.93
2023-05-05T10:25:46.452Z,1.27
2023-05-05T10:28:17.979Z,1.08
2023-05-05T10:30:49.097Z,0.95
2023-05-05T10:33:31.478Z,0.63
2023-05-05T10:36:13.852Z,1.15
2023-05-05T10:38:56.534Z,1.13
2023-05-05T10:41:25.293Z,0.73
2023-05-05T10:43:55.574Z,1.00
2023-05-05T10:46:22.579Z,0.85
2023-05-05T10:49:04.679Z,1.08
2023-05-05T10:51:45.137Z,1.10
2023-05-05T10:54:30.442Z,0.90
2023-05-05T10:56:58.917Z,0.88
2023-05-05T10:59:38.107Z,1.10
2023-05-05T11:02:22.209Z,0.85
2023-05-05T11:05:08.182Z,0.93
2023-05-05T11:07:38.431Z,0.77
2023-05-05T11:10:07.183Z,0.82
2023-05-05T11:13:02.871Z,1.20
2023-05-05T11:15:30.130Z,0.80
2023-05-05T11:17:58.627Z,0.70
2023-05-05T11:20:39.454Z,0.82
2023-05-05T11:23:06.278Z,0.88
2023-05-05T11:25:42.136Z,0.85
2023-05-05T11:28:12.051Z,0.98
2023-05-05T11:30:57.945Z,0.93
2023-05-05T11:33:30.842Z,1.27
2023-05-05T11:36:04.101Z,0.70
2023-05-05T11:38:44.364Z,0.88
2023-05-05T11:41:27.497Z,0.70
2023-05-05T11:44:17.476Z,0.90
2023-05-05T11:46:53.460Z,1.00
2023-05-05T11:49:35.040Z,0.80
2023-05-05T11:52:12.511Z,0.63
2023-05-05T11:54:50.686Z,0.77
2023-05-05T11:57:21.518Z,0.80
2023-05-05T11:59:55.617Z,0.75
2023-05-05T12:02:23.229Z,0.80
2023-05-05T12:04:51.268Z,0.60
2023-05-05T12:07:19.513Z,0.68
2023-05-05T12:09:47.527Z,0.85
2023-05-05T12:12:15.283Z,0.70
2023-05-05T12:15:00.009Z,0.75
2023-05-05T12:17:37.505Z,0.68
2023-05-05T12:20:04.827Z,0.50
2023-05-05T12:22:31.534Z,0.60
2023-05-05T12:25:01.114Z,0.82
2023-05-05T12:27:28.486Z,0.70
2023-05-05T12:30:17.496Z,0.70
2023-05-05T12:32:45.066Z,0.70
2023-05-05T12:35:15.937Z,1.13
2023-05-05T12:37:43.501Z,1.25
2023-05-05T12:40:43.690Z,0.65
2023-05-05T12:43:32.180Z,0.60
2023-05-05T12:46:06.823Z,0.93
2023-05-05T12:48:47.262Z,1.23
2023-05-05T12:51:25.517Z,0.68
2023-05-05T12:54:25.244Z,0.70
2023-05-05T12:57:03.717Z,0.70
2023-05-05T12:59:33.472Z,0.75
2023-05-05T13:02:09.164Z,0.80
2023-05-05T13:05:08.849Z,0.70
2023-05-05T13:07:41.399Z,0.60
2023-05-05T13:10:39.459Z,0.60
2023-05-05T13:13:14.948Z,0.60
2023-05-05T13:15:47.530Z,0.60
2023-05-05T13:18:17.023Z,0.57
2023-05-05T13:20:43.908Z,0.70
2023-05-05T13:23:10.824Z,0.65
2023-05-05T13:25:37.734Z,0.68
2023-05-05T13:28:04.674Z,1.42
2023-05-05T13:30:31.525Z,0.63
2023-05-05T13:32:58.313Z,0.80
2023-05-05T13:35:25.189Z,0.77
2023-05-05T13:37:51.924Z,0.70
2023-05-05T13:40:18.936Z,0.68
2023-05-05T13:42:45.755Z,0.60
2023-05-05T13:45:16.531Z,0.85
2023-05-05T13:47:45.066Z,1.00
2023-05-05T13:50:13.617Z,0.80
2023-05-05T13:52:40.415Z,1.00
2023-05-05T13:55:07.721Z,0.93
2023-05-05T13:57:34.802Z,0.70
2023-05-05T14:00:01.687Z,0.80
2023-05-05T14:02:28.701Z,0.80
2023-05-05T14:04:55.537Z,1.25
2023-05-05T14:07:22.270Z,0.85
2023-05-05T14:09:49.060Z,0.40
2023-05-05T14:12:16.262Z,0.93
2023-05-05T14:14:43.060Z,0.63
2023-05-05T14:17:09.843Z,0.90
2023-05-05T14:19:36.956Z,0.50
2023-05-05T14:22:03.831Z,0.60
2023-05-05T14:24:30.645Z,0.80
2023-05-05T14:26:57.569Z,0.60
2023-05-05T14:29:24.300Z,0.60
2023-05-05T14:31:50.995Z,0.70
2023-05-05T14:34:17.724Z,0.82
2023-05-05T14:36:44.535Z,0.55
2023-05-05T14:39:11.325Z,0.60
2023-05-05T14:41:38.055Z,0.60
2023-05-05T14:44:05.110Z,0.40
2023-05-05T14:46:32.212Z,0.80
2023-05-05T14:48:59.177Z,0.50
2023-05-05T14:51:26.034Z,0.77
2023-05-05T14:53:52.841Z,0.52
2023-05-05T14:56:22.395Z,0.60
2023-05-05T14:58:49.516Z,0.60
2023-05-05T15:01:16.689Z,0.57
2023-05-05T15:03:43.787Z,0.50
2023-05-05T15:06:10.833Z,0.40
2023-05-05T15:08:39.242Z,0.65
2023-05-05T15:11:06.407Z,0.43
2023-05-05T15:13:33.424Z,0.50
2023-05-05T15:16:00.820Z,0.40
2023-05-05T15:18:27.565Z,0.50
2023-05-05T15:20:54.282Z,0.50
2023-05-05T15:23:21.016Z,0.60
2023-05-05T15:25:47.741Z,0.50
2023-05-05T15:28:14.506Z,0.55
2023-05-05T15:30:41.490Z,0.45
2023-05-05T15:33:08.178Z,0.52
2023-05-05T15:35:36.127Z,0.60
2023-05-05T15:38:03.292Z,0.50
2023-05-05T15:40:29.991Z,0.50
2023-05-05T15:42:57.261Z,0.50
2023-05-05T15:45:24.025Z,0.68
2023-05-05T15:47:50.862Z,0.50
2023-05-05T15:50:17.805Z,0.70
2023-05-05T15:52:44.619Z,0.80
2023-05-05T15:55:11.766Z,0.55
2023-05-05T15:57:41.298Z,0.55
2023-05-05T16:00:08.798Z,0.80
2023-05-05T16:02:37.074Z,0.70
2023-05-05T16:05:04.607Z,0.52
2023-05-05T16:07:31.324Z,0.73
2023-05-05T16:09:58.024Z,0.90
2023-05-05T16:12:24.817Z,0.60
2023-05-05T16:14:51.890Z,0.60
2023-05-05T16:17:20.353Z,0.80
2023-05-05T16:19:48.609Z,0.70
2023-05-05T16:22:17.567Z,0.70
2023-05-05T16:24:44.429Z,0.88
2023-05-05T16:27:11.224Z,0.93
2023-05-05T16:29:38.011Z,0.75
2023-05-05T16:32:05.489Z,0.80
2023-05-05T16:34:32.260Z,0.77
2023-05-05T16:36:58.968Z,1.13
2023-05-05T16:39:26.157Z,1.08
2023-05-05T16:41:52.858Z,3.85
2023-05-05T16:44:19.589Z,1.15
2023-05-05T16:46:46.338Z,3.00
2023-05-05T16:49:13.039Z,0.98
2023-05-05T16:51:39.820Z,2.65
2023-05-05T16:54:06.590Z,19.45
2023-05-05T16:56:33.327Z,4.60
2023-05-05T16:59:00.099Z,2.40
2023-05-05T17:01:26.864Z,1.75
2023-05-05T17:03:55.318Z,1.05
2023-05-05T17:06:22.142Z,1.25
2023-05-05T17:08:48.995Z,2.30
2023-05-05T17:11:15.665Z,1.90
2023-05-05T17:13:42.464Z,1.00
2023-05-05T17:16:09.303Z,1.10
2023-05-05T17:18:37.088Z,1.05
2023-05-05T17:21:03.902Z,1.48
2023-05-05T17:23:30.695Z,1.00
2023-05-05T17:25:58.772Z,1.10
2023-05-05T17:28:25.757Z,0.93
2023-05-05T17:30:52.468Z,1.20
2023-05-05T17:33:21.476Z,1.42
2023-05-05T17:35:55.251Z,1.45
2023-05-05T17:38:21.991Z,1.17
2023-05-05T17:40:48.662Z,1.00
2023-05-05T17:43:57.975Z,1.00
2023-05-05T17:46:28.207Z,1.00
2023-05-05T17:49:03.572Z,1.17
2023-05-05T17:51:42.092Z,1.20
2023-05-05T17:54:13.315Z,1.23
2023-05-05T17:56:40.154Z,1.30
2023-05-05T17:59:09.602Z,1.35
2023-05-05T18:01:39.511Z,1.08
2023-05-05T18:04:06.449Z,1.25
2023-05-05T18:06:33.177Z,1.15
2023-05-05T18:08:59.886Z,1.40
2023-05-05T18:11:28.826Z,1.48
2023-05-05T18:13:56.169Z,1.80
2023-05-05T18:16:27.038Z,2.00
2023-05-05T18:18:53.860Z,1.63
2023-05-05T18:21:20.547Z,1.65
2023-05-05T18:23:47.325Z,1.73
2023-05-05T18:26:14.273Z,1.60
2023-05-05T18:28:41.000Z,2.05
2023-05-05T18:31:08.025Z,1.75
2023-05-05T18:33:35.085Z,2.03
2023-05-05T18:36:07.515Z,1.98
2023-05-05T18:38:35.959Z,1.58
2023-05-05T18:41:04.812Z,2.35
2023-05-05T18:43:31.815Z,1.80
2023-05-05T18:45:58.553Z,2.20
2023-05-05T18:48:26.172Z,1.85
2023-05-05T18:50:52.963Z,1.95
2023-05-05T18:53:19.874Z,1.83
2023-05-05T18:55:47.334Z,1.88
2023-05-05T18:58:14.141Z,2.03
2023-05-05T19:00:40.879Z,1.70
2023-05-05T19:03:07.705Z,1.85
2023-05-05T19:05:34.656Z,2.20
2023-05-05T19:08:01.353Z,2.10
2023-05-05T19:10:28.173Z,2.53
2023-05-05T19:12:55.431Z,2.53
2023-05-05T19:15:22.254Z,2.50
2023-05-05T19:17:49.074Z,1.98
2023-05-05T19:20:15.851Z,2.40
2023-05-05T19:22:42.541Z,2.83
2023-05-05T19:25:09.910Z,2.33
2023-05-05T19:27:37.091Z,3.90
2023-05-05T19:30:05.296Z,3.22
2023-05-05T19:32:32.113Z,2.85
2023-05-05T19:34:59.043Z,2.92
2023-05-05T19:37:25.870Z,3.67
2023-05-05T19:39:52.879Z,4.38
2023-05-05T19:42:19.711Z,3.20
2023-05-05T19:44:46.587Z,4.88
2023-05-05T19:47:13.295Z,4.10
2023-05-05T19:49:40.007Z,4.35
2023-05-05T19:52:06.713Z,3.10
2023-05-05T19:54:33.433Z,3.45
2023-05-05T19:57:00.734Z,3.00
2023-05-05T19:59:27.638Z,2.70
2023-05-05T20:01:57.076Z,3.47
2023-05-05T20:04:23.869Z,2.50
2023-05-05T20:06:50.975Z,2.85
2023-05-05T20:09:17.899Z,3.50
2023-05-05T20:11:44.587Z,2.85
2023-05-05T20:14:11.435Z,2.28
2023-05-05T20:16:39.190Z,2.90
2023-05-05T20:19:06.010Z,2.28
2023-05-05T20:21:34.252Z,2.20
2023-05-05T20:24:01.080Z,2.38
2023-05-05T20:26:27.852Z,2.35
2023-05-05T20:28:54.583Z,2.22
2023-05-05T20:31:23.965Z,2.53
2023-05-05T20:33:51.894Z,2.50
2023-05-05T20:36:22.887Z,2.10
2023-05-05T20:38:49.954Z,2.30
2023-05-05T20:41:16.709Z,2.78
2023-05-05T20:43:43.524Z,1.95
2023-05-05T20:46:13.957Z,2.33
2023-05-05T20:48:43.065Z,3.10
2023-05-05T20:51:09.967Z,2.67
2023-05-05T20:53:36.712Z,2.38
2023-05-05T20:56:05.752Z,2.60
2023-05-05T20:58:33.438Z,1.95
2023-05-05T21:01:00.438Z,2.22
2023-05-05T21:03:27.210Z,2.33
2023-05-05T21:05:54.340Z,2.05
2023-05-05T21:08:21.210Z,1.58
2023-05-05T21:15:16.505Z,1.92
2023-05-05T21:17:46.161Z,1.98
2023-05-05T21:20:13.498Z,1.80
2023-05-05T21:22:40.311Z,1.65
2023-05-05T21:25:11.537Z,1.60
2023-05-05T21:27:38.285Z,1.67
2023-05-05T21:30:07.735Z,1.75
2023-05-05T21:32:36.100Z,1.63
2023-05-05T21:35:03.657Z,1.75
2023-05-05T21:37:30.856Z,1.65
2023-05-05T21:39:57.575Z,1.35
2023-05-05T21:42:24.364Z,1.88
2023-05-05T21:44:51.332Z,1.48
2023-05-05T21:47:18.047Z,1.50
2023-05-05T21:49:44.837Z,1.33
2023-05-05T21:52:11.590Z,1.48
2023-05-05T21:54:38.297Z,2.08
2023-05-05T21:57:05.069Z,1.60
2023-05-05T21:59:31.771Z,1.48
2023-05-05T22:01:58.648Z,1.42
2023-05-05T22:04:26.712Z,1.85
2023-05-05T22:06:53.596Z,2.38
2023-05-05T22:09:20.272Z,1.80
2023-05-05T22:11:49.998Z,1.75
2023-05-05T22:14:16.723Z,1.75
2023-05-05T22:16:43.580Z,1.52
2023-05-05T22:19:11.389Z,1.77
2023-05-05T22:21:38.334Z,2.05
2023-05-05T22:24:07.081Z,1.80
2023-05-05T22:26:35.304Z,1.50
2023-05-05T22:29:02.310Z,1.70
2023-05-05T22:31:30.780Z,1.67
2023-05-05T22:33:57.647Z,1.63
2023-05-05T22:36:24.513Z,1.83
2023-05-05T22:38:51.570Z,1.45
2023-05-05T22:41:18.368Z,1.73
2023-05-05T22:43:45.203Z,1.70
2023-05-05T22:46:12.159Z,1.80
2023-05-05T22:48:38.886Z,1.40
2023-05-05T22:51:05.766Z,1.92
2023-05-05T22:53:32.581Z,1.65
2023-05-05T22:55:59.739Z,1.73
2023-05-05T22:58:27.202Z,2.25
2023-05-05T23:00:54.018Z,2.45
2023-05-05T23:03:20.789Z,2.17
2023-05-05T23:05:48.434Z,1.88
2023-05-05T23:08:15.299Z,1.90
2023-05-05T23:10:41.970Z,1.90
2023-05-05T23:13:08.820Z,1.67
2023-05-05T23:15:35.659Z,2.10
2023-05-05T23:18:02.480Z,2.20
2023-05-05T23:20:29.534Z,2.35
2023-05-05T23:22:56.308Z,2.17
2023-05-05T23:25:23.074Z,2.65
2023-05-05T23:27:49.811Z,2.60
2023-05-05T23:30:16.711Z,2.63
2023-05-05T23:32:44.870Z,2.05
2023-05-05T23:35:11.860Z,2.50
2023-05-05T23:37:38.786Z,1.90
2023-05-05T23:40:06.860Z,2.25
2023-05-05T23:42:33.628Z,2.05
2023-05-05T23:45:00.849Z,2.67
2023-05-05T23:47:27.573Z,2.67
2023-05-05T23:49:54.315Z,3.03
2023-05-05T23:52:21.790Z,2.53
2023-05-05T23:54:48.516Z,2.42
2023-05-05T23:57:15.235Z,2.60
2023-05-05T23:59:41.939Z,2.63
